Time;durP1;ratioP1;P1;durP2;ratioP2;P2;SDS_P1;SDS_P2;PMS_P1;PMS_P2;Temp;Humidity;BMP_temperature;BMP_pressure;BME280_temperature;BME280_humidity;BME280_pressure;Samples;Min_cycle;Max_cycle;Signal;HPM_P1;HPM_P2
2023/11/19 00:00:06;;;;;;;;;;;;;;;12.45;100.00;100751.38;5012638;28;19913;-40
2023/11/19 00:02:31;;;;;;;;;;;;;;;12.41;100.00;100752.78;5011946;28;19917;-40
2023/11/19 00:04:57;;;;;;;;;;;;;;;12.42;100.00;100770.63;5016578;28;19923;-40
2023/11/19 00:07:23;;;;;;;;;;;;;;;12.43;100.00;100777.72;5012436;28;20043;-40
2023/11/19 00:09:49;;;;;;;;;;;;;;;12.41;100.00;100779.78;5013426;28;20377;-40
2023/11/19 00:12:14;;;;;;;;;;;;;;;12.42;100.00;100786.84;5025897;28;19999;-40
2023/11/19 00:14:39;;;;;;;;;;;;;;;12.41;100.00;100784.34;5021962;28;19927;-40
2023/11/19 00:17:04;;;;;;;;;;;;;;;12.39;100.00;100787.22;5022789;28;19925;-40
2023/11/19 00:19:30;;;;;;;;;;;;;;;12.39;100.00;100770.22;5011943;28;19918;-40
2023/11/19 00:21:55;;;;;;;;;;;;;;;12.34;100.00;100773.47;5013203;28;19913;-40
2023/11/19 00:24:20;;;;;;;;;;;;;;;12.34;100.00;100767.25;5032296;28;20013;-40
2023/11/19 00:26:45;;;;;;;;;;;;;;;12.31;100.00;100763.09;5032752;28;19970;-40
2023/11/19 00:29:11;;;;;;;;;;;;;;;12.29;100.00;100754.34;5014269;28;19923;-41
2023/11/19 00:31:36;;;;;;;;;;;;;;;12.29;100.00;100759.75;5012704;28;19956;-40
2023/11/19 00:34:02;;;;;;;;;;;;;;;12.28;100.00;100752.69;5012799;28;20391;-40
2023/11/19 00:36:28;;;;;;;;;;;;;;;12.31;100.00;100760.38;5012560;28;20004;-40
2023/11/19 00:38:53;;;;;;;;;;;;;;;12.30;100.00;100761.44;5012498;28;20352;-40
2023/11/19 00:41:18;;;;;;;;;;;;;;;12.34;100.00;100746.50;5012847;28;19920;-40
2023/11/19 00:43:44;;;;;;;;;;;;;;;12.36;100.00;100749.84;5013142;28;20284;-40
2023/11/19 00:46:10;;;;;;;;;;;;;;;12.35;100.00;100753.59;5017570;28;19952;-40
2023/11/19 00:48:36;;;;;;;;;;;;;;;12.37;100.00;100751.50;5017644;28;19955;-41
2023/11/19 00:51:01;;;;;;;;;;;;;;;12.37;100.00;100748.78;5017562;28;19918;-40
2023/11/19 00:53:26;;;;;;;;;;;;;;;12.37;100.00;100743.41;5016733;28;19932;-40
2023/11/19 00:55:51;;;;;;;;;;;;;;;12.37;100.00;100738.00;5015987;28;19913;-40
2023/11/19 00:58:17;;;;;;;;;;;;;;;12.34;100.00;100730.31;5025313;28;19916;-40
2023/11/19 01:00:43;;;;;;;;;;;;;;;12.31;100.00;100725.31;5038039;28;19913;-40
2023/11/19 01:03:08;;;;;;;;;;;;;;;12.30;100.00;100720.94;5032135;28;19987;-40
2023/11/19 01:05:33;;;;;;;;;;;;;;;12.29;100.00;100719.25;5019819;28;20338;-40
2023/11/19 01:07:59;;;;;;;;;;;;;;;12.26;100.00;100712.41;5019345;28;19920;-40
2023/11/19 01:10:25;;;;;;;;;;;;;;;12.25;100.00;100702.63;5016794;28;19918;-40
2023/11/19 01:12:50;;;;;;;;;;;;;;;12.22;100.00;100704.91;5015994;28;20438;-40
2023/11/19 01:15:18;;;;;;;;;;;;;;;12.20;100.00;100704.25;5021384;28;19971;-40
2023/11/19 01:17:43;;;;;;;;;;;;;;;12.18;100.00;100698.22;5047445;28;19948;-40
2023/11/19 01:20:12;;;;;;;;;;;;;;;12.14;100.00;100696.94;5043064;28;19963;-40
2023/11/19 01:22:37;;;;;;;;;;;;;;;12.15;100.00;100694.06;5042712;28;20103;-40
2023/11/19 01:25:02;;;;;;;;;;;;;;;12.13;100.00;100701.50;5017964;28;20038;-41
2023/11/19 01:27:28;;;;;;;;;;;;;;;12.11;100.00;100706.25;5037603;28;19913;-39
2023/11/19 01:29:53;;;;;;;;;;;;;;;12.11;100.00;100702.72;5038472;28;20376;-41
2023/11/19 01:32:18;;;;;;;;;;;;;;;12.10;100.00;100696.50;5053527;28;20439;-38
2023/11/19 01:34:44;;;;;;;;;;;;;;;12.06;100.00;100698.75;5044365;28;19924;-41
2023/11/19 01:37:10;;;;;;;;;;;;;;;12.03;100.00;100699.16;5040149;28;19954;-41
2023/11/19 01:39:35;;;;;;;;;;;;;;;12.02;100.00;100692.09;5035484;28;19923;-41
2023/11/19 01:42:00;;;;;;;;;;;;;;;11.97;100.00;100697.22;5034854;28;19913;-39
2023/11/19 01:44:25;;;;;;;;;;;;;;;11.94;100.00;100696.78;5030613;28;19917;-40
2023/11/19 01:46:52;;;;;;;;;;;;;;;11.93;100.00;100692.41;5035090;28;19921;-40
2023/11/19 01:49:17;;;;;;;;;;;;;;;11.91;100.00;100691.78;5033593;28;19913;-40
2023/11/19 01:51:43;;;;;;;;;;;;;;;11.92;100.00;100688.88;5033933;28;19932;-41
2023/11/19 01:54:08;;;;;;;;;;;;;;;11.91;100.00;100687.22;5022697;28;19960;-39
2023/11/19 01:56:33;;;;;;;;;;;;;;;11.89;100.00;100677.66;5014567;28;19945;-39
2023/11/19 01:58:58;;;;;;;;;;;;;;;11.86;100.00;100684.28;5013339;28;19996;-40
2023/11/19 02:01:24;;;;;;;;;;;;;;;11.90;100.00;100707.16;5014710;28;19913;-41
2023/11/19 02:03:49;;;;;;;;;;;;;;;11.88;100.00;100719.97;5014491;28;19959;-40
2023/11/19 02:06:15;;;;;;;;;;;;;;;11.86;100.00;100716.63;5014518;28;19914;-40
2023/11/19 02:08:40;;;;;;;;;;;;;;;11.89;100.00;100728.91;5014551;28;19968;-40
2023/11/19 02:11:07;;;;;;;;;;;;;;;11.91;100.00;100719.59;5014507;28;20257;-39
2023/11/19 02:13:32;;;;;;;;;;;;;;;11.91;100.00;100719.59;5014146;28;19922;-40
2023/11/19 02:15:57;;;;;;;;;;;;;;;11.93;100.00;100700.50;5014445;28;20351;-40
2023/11/19 02:18:29;;;;;;;;;;;;;;;11.89;100.00;100707.31;5013953;28;19913;-40
2023/11/19 02:20:57;;;;;;;;;;;;;;;11.86;100.00;100700.47;5032676;28;20004;-40
2023/11/19 02:23:23;;;;;;;;;;;;;;;11.82;100.00;100700.00;5046674;28;19917;-41
2023/11/19 02:26:08;;;;;;;;;;;;;;;11.81;100.00;100702.88;5013938;28;19917;-41
2023/11/19 02:28:33;;;;;;;;;;;;;;;11.77;100.00;100690.78;5043037;28;20221;-40
2023/11/19 02:30:59;;;;;;;;;;;;;;;11.73;100.00;100695.75;5033128;28;19920;-41
2023/11/19 02:33:24;;;;;;;;;;;;;;;11.73;100.00;100689.53;5046534;28;20318;-39
2023/11/19 02:35:50;;;;;;;;;;;;;;;11.68;100.00;100689.25;5044876;28;19917;-41
2023/11/19 02:38:16;;;;;;;;;;;;;;;11.65;100.00;100699.41;5036082;28;20315;-40
2023/11/19 02:40:41;;;;;;;;;;;;;;;11.64;100.00;100700.44;5039474;28;20708;-40
2023/11/19 02:43:06;;;;;;;;;;;;;;;11.63;100.00;100696.06;5052105;28;19979;-40
2023/11/19 02:45:33;;;;;;;;;;;;;;;11.58;100.00;100693.09;5053936;28;20003;-41
2023/11/19 02:48:01;;;;;;;;;;;;;;;11.55;100.00;100696.19;5043171;28;19966;-41
2023/11/19 02:50:26;;;;;;;;;;;;;;;11.55;100.00;100698.03;5030844;28;20272;-40
2023/11/19 02:52:53;;;;;;;;;;;;;;;11.59;100.00;100693.97;5038325;28;20016;-40
2023/11/19 02:55:19;;;;;;;;;;;;;;;11.59;100.00;100702.88;5033235;28;19913;-41
2023/11/19 02:57:48;;;;;;;;;;;;;;;11.59;100.00;100705.56;5038609;28;19917;-41
2023/11/19 03:00:17;;;;;;;;;;;;;;;11.58;100.00;100693.09;5039803;28;20402;-41
2023/11/19 03:02:58;;;;;;;;;;;;;;;11.54;100.00;100686.44;5044168;28;20015;-39
2023/11/19 03:05:23;;;;;;;;;;;;;;;11.52;100.00;100688.47;5036167;28;19916;-41
2023/11/19 03:07:48;;;;;;;;;;;;;;;11.51;100.00;100689.53;5034163;28;19970;-40
2023/11/19 03:10:14;;;;;;;;;;;;;;;11.45;100.00;100679.50;5032722;28;20367;-41
2023/11/19 03:12:40;;;;;;;;;;;;;;;11.46;100.00;100689.25;5041863;28;19924;-40
2023/11/19 03:15:05;;;;;;;;;;;;;;;11.49;100.00;100680.78;5033740;28;19978;-41
2023/11/19 03:17:31;;;;;;;;;;;;;;;11.48;100.00;100665.66;5035232;28;20383;-40
2023/11/19 03:19:56;;;;;;;;;;;;;;;11.49;100.00;100656.53;5032514;28;19940;-40
2023/11/19 03:22:21;;;;;;;;;;;;;;;11.47;100.00;100655.06;5040999;28;19928;-41
2023/11/19 03:24:46;;;;;;;;;;;;;;;11.44;100.00;100648.19;5032265;28;19921;-40
2023/11/19 03:27:12;;;;;;;;;;;;;;;11.43;100.00;100651.91;5027966;28;19909;-39
2023/11/19 03:29:38;;;;;;;;;;;;;;;11.46;100.00;100653.41;5039059;28;20291;-40
2023/11/19 03:32:03;;;;;;;;;;;;;;;11.42;100.00;100661.00;5049259;28;20278;-42
2023/11/19 03:34:29;;;;;;;;;;;;;;;11.41;100.00;100664.75;5032370;28;19917;-41
2023/11/19 03:36:55;;;;;;;;;;;;;;;11.37;100.00;100667.00;5035364;28;19909;-41
2023/11/19 03:39:20;;;;;;;;;;;;;;;11.36;100.00;100667.19;5052217;28;20329;-41
2023/11/19 03:41:47;;;;;;;;;;;;;;;11.41;100.00;100662.06;5039857;28;19921;-40
2023/11/19 03:44:13;;;;;;;;;;;;;;;11.37;100.00;100664.31;5026111;28;19925;-41
2023/11/19 03:46:38;;;;;;;;;;;;;;;11.40;100.00;100674.69;5031646;28;19917;-42
2023/11/19 03:49:04;;;;;;;;;;;;;;;11.43;100.00;100668.09;5036176;28;19928;-40
2023/11/19 03:51:29;;;;;;;;;;;;;;;11.40;100.00;100663.06;5040126;28;19917;-41
2023/11/19 03:53:54;;;;;;;;;;;;;;;11.37;100.00;100660.75;5027563;28;19918;-41
2023/11/19 03:56:20;;;;;;;;;;;;;;;11.36;100.00;100659.09;5012912;28;19917;-40
2023/11/19 03:58:46;;;;;;;;;;;;;;;11.37;100.00;100668.84;5014266;28;19996;-40
2023/11/19 04:01:13;;;;;;;;;;;;;;;11.33;100.00;100662.19;5016035;28;19922;-40
2023/11/19 04:03:38;;;;;;;;;;;;;;;11.33;100.00;100678.34;5019835;28;20358;-41
2023/11/19 04:06:04;;;;;;;;;;;;;;;11.38;100.00;100662.44;5035351;28;20003;-41
2023/11/19 04:08:29;;;;;;;;;;;;;;;11.39;100.00;100666.78;5036776;28;19967;-41
2023/11/19 04:10:54;;;;;;;;;;;;;;;11.40;100.00;100672.00;5036224;28;19920;-41
2023/11/19 04:13:19;;;;;;;;;;;;;;;11.43;100.00;100674.31;5031776;28;19917;-42
2023/11/19 04:15:45;;;;;;;;;;;;;;;11.45;100.00;100665.19;5015222;28;19940;-41
2023/11/19 04:18:10;;;;;;;;;;;;;;;11.43;100.00;100666.22;5015242;28;20332;-40
2023/11/19 04:20:36;;;;;;;;;;;;;;;11.46;100.00;100662.31;5018524;28;19913;-39
2023/11/19 04:23:01;;;;;;;;;;;;;;;11.50;100.00;100658.19;5009130;28;19917;-41
2023/11/19 04:25:27;;;;;;;;;;;;;;;11.49;100.00;100667.31;5013362;28;20432;-40
2023/11/19 04:27:52;;;;;;;;;;;;;;;11.48;100.00;100667.50;5017372;28;19914;-39
2023/11/19 04:30:18;;;;;;;;;;;;;;;11.48;100.00;100671.03;5015994;28;19964;-41
2023/11/19 04:32:43;;;;;;;;;;;;;;;11.48;100.00;100670.19;5016295;28;19963;-41
2023/11/19 04:35:09;;;;;;;;;;;;;;;11.43;100.00;100674.31;5014538;28;19913;-41
2023/11/19 04:37:34;;;;;;;;;;;;;;;11.46;100.00;100672.25;5017135;28;19932;-41
2023/11/19 04:39:59;;;;;;;;;;;;;;;11.46;100.00;100666.88;5016649;28;19920;-39
2023/11/19 04:42:25;;;;;;;;;;;;;;;11.42;100.00;100656.44;5014974;28;19921;-41
2023/11/19 04:44:50;;;;;;;;;;;;;;;11.45;100.00;100654.41;5001757;28;19917;-41
2023/11/19 04:47:15;;;;;;;;;;;;;;;11.44;100.00;100658.97;4996237;28;20000;-41
2023/11/19 04:49:42;;;;;;;;;;;;;;;11.44;100.00;100661.66;4995779;28;19949;-41
2023/11/19 04:52:08;;;;;;;;;;;;;;;11.41;100.00;100653.97;5018847;28;19922;-41
2023/11/19 04:54:33;;;;;;;;;;;;;;;11.41;100.00;100667.44;5005334;28;19925;-40
2023/11/19 04:56:58;;;;;;;;;;;;;;;11.38;100.00;100665.97;5008105;28;19920;-41
2023/11/19 04:59:23;;;;;;;;;;;;;;;11.38;100.00;100662.44;5026864;28;19921;-40
2023/11/19 05:01:49;;;;;;;;;;;;;;;11.39;100.00;100666.78;5027205;28;19920;-40
2023/11/19 05:04:14;;;;;;;;;;;;;;;11.38;100.00;100665.13;5021051;28;19914;-41
2023/11/19 05:06:39;;;;;;;;;;;;;;;11.41;100.00;100662.06;5016985;28;19940;-40
2023/11/19 05:09:07;;;;;;;;;;;;;;;11.44;100.00;100664.34;5022649;28;20007;-41
2023/11/19 05:11:32;;;;;;;;;;;;;;;11.39;100.00;100672.19;5013018;28;20371;-41
2023/11/19 05:13:59;;;;;;;;;;;;;;;11.40;100.00;100679.22;5009569;28;19952;-41
2023/11/19 05:16:24;;;;;;;;;;;;;;;11.40;100.00;100679.22;4994295;28;20420;-41
2023/11/19 05:18:49;;;;;;;;;;;;;;;11.38;100.00;100678.59;4995040;28;20029;-40
2023/11/19 05:21:14;;;;;;;;;;;;;;;11.38;100.00;100665.13;4994679;28;20000;-40
2023/11/19 05:23:41;;;;;;;;;;;;;;;11.38;100.00;100675.91;5024965;28;19975;-40
2023/11/19 05:26:07;;;;;;;;;;;;;;;11.38;100.00;100670.53;5011939;28;20379;-41
2023/11/19 05:28:32;;;;;;;;;;;;;;;11.38;100.00;100678.59;5013187;28;19959;-41
2023/11/19 05:30:57;;;;;;;;;;;;;;;11.38;100.00;100673.22;5012163;28;19918;-41
2023/11/19 05:33:22;;;;;;;;;;;;;;;11.35;100.00;100681.69;5013378;28;19909;-42
2023/11/19 05:35:48;;;;;;;;;;;;;;;11.31;100.00;100672.31;5017458;28;19929;-40
2023/11/19 05:38:14;;;;;;;;;;;;;;;11.27;100.00;100679.09;5013550;28;19940;-40
2023/11/19 05:40:39;;;;;;;;;;;;;;;11.24;100.00;100674.09;5014307;28;20005;-41
2023/11/19 05:43:05;;;;;;;;;;;;;;;11.23;100.00;100672.44;5017013;28;20363;-39
2023/11/19 05:45:30;;;;;;;;;;;;;;;11.20;100.00;100676.34;5028050;28;19925;-40
2023/11/19 05:47:55;;;;;;;;;;;;;;;11.19;100.00;100680.88;5035522;28;20028;-40
2023/11/19 05:50:21;;;;;;;;;;;;;;;11.21;100.00;100676.13;5031413;28;19917;-40
2023/11/19 05:52:46;;;;;;;;;;;;;;;11.23;100.00;100672.44;5032703;28;19921;-41
2023/11/19 05:55:11;;;;;;;;;;;;;;;11.21;100.00;100676.13;5024525;28;20335;-41
2023/11/19 05:57:37;;;;;;;;;;;;;;;11.23;100.00;100667.03;5013146;28;19928;-40
2023/11/19 06:00:06;;;;;;;;;;;;;;;11.18;100.00;100660.34;5016085;28;19925;-40
2023/11/19 06:02:32;;;;;;;;;;;;;;;11.19;100.00;100664.72;5015975;28;20011;-40
2023/11/19 06:04:57;;;;;;;;;;;;;;;11.16;100.00;100656.16;5016069;28;20161;-40
2023/11/19 06:07:23;;;;;;;;;;;;;;;11.14;100.00;100653.69;5029062;28;19924;-39
2023/11/19 06:09:48;;;;;;;;;;;;;;;11.20;100.00;100652.09;5032873;28;19917;-40
2023/11/19 06:12:14;;;;;;;;;;;;;;;11.20;100.00;100657.47;5051747;28;19920;-40
2023/11/19 06:14:39;;;;;;;;;;;;;;;11.24;100.00;100664.13;5009142;28;20004;-40
2023/11/19 06:17:05;;;;;;;;;;;;;;;11.29;100.00;100655.50;5033230;28;19925;-40
2023/11/19 06:19:30;;;;;;;;;;;;;;;11.27;100.00;100655.69;5034021;28;19921;-40
2023/11/19 06:21:55;;;;;;;;;;;;;;;11.32;100.00;100663.19;5034153;28;19917;-40
2023/11/19 06:24:21;;;;;;;;;;;;;;;11.34;100.00;100670.06;5007001;28;20012;-40
2023/11/19 06:26:46;;;;;;;;;;;;;;;11.31;100.00;100666.91;5004334;28;20024;-41
2023/11/19 06:29:11;;;;;;;;;;;;;;;11.30;100.00;100678.72;5003777;28;20007;-41
2023/11/19 06:31:36;;;;;;;;;;;;;;;11.27;100.00;100689.84;5012005;28;20003;-40
2023/11/19 06:34:02;;;;;;;;;;;;;;;11.29;100.00;100685.94;5013742;28;19956;-41
2023/11/19 06:36:27;;;;;;;;;;;;;;;11.33;100.00;100679.16;4995376;28;20004;-41
2023/11/19 06:38:52;;;;;;;;;;;;;;;11.38;100.00;100692.91;5003432;28;19984;-41
2023/11/19 06:41:17;;;;;;;;;;;;;;;11.41;100.00;100697.91;5011556;28;20011;-40
2023/11/19 06:43:43;;;;;;;;;;;;;;;11.44;100.00;100696.69;5012304;28;20011;-41
2023/11/19 06:46:15;;;;;;;;;;;;;;;11.47;100.00;100693.59;5010776;28;19928;-41
2023/11/19 06:48:40;;;;;;;;;;;;;;;11.49;100.00;100710.44;5011495;28;19917;-41
2023/11/19 06:51:05;;;;;;;;;;;;;;;11.51;100.00;100700.31;5004826;28;19921;-40
2023/11/19 06:53:30;;;;;;;;;;;;;;;11.54;100.00;100713.38;4993790;28;19924;-40
2023/11/19 06:55:56;;;;;;;;;;;;;;;11.55;100.00;100703.44;5004032;28;19921;-39
2023/11/19 06:58:22;;;;;;;;;;;;;;;11.56;100.00;100710.50;5011101;28;19936;-41
2023/11/19 07:00:49;;;;;;;;;;;;;;;11.58;100.00;100705.75;5006612;28;19920;-41
2023/11/19 07:03:15;;;;;;;;;;;;;;;11.61;100.00;100703.53;5004765;28;19924;-41
2023/11/19 07:05:41;;;;;;;;;;;;;;;11.64;100.00;100708.53;5006882;28;19972;-40
2023/11/19 07:08:07;;;;;;;;;;;;;;;11.67;100.00;100701.09;4977419;28;19921;-40
2023/11/19 07:10:32;;;;;;;;;;;;;;;11.69;100.00;100704.41;4999771;28;20000;-41
2023/11/19 07:12:58;;;;;;;;;;;;;;;11.68;100.00;100700.03;5006762;28;20031;-41
2023/11/19 07:15:24;;;;;;;;;;;;;;;11.64;100.00;100703.13;5008596;28;19941;-41
2023/11/19 07:17:49;;;;;;;;;;;;;;;11.62;100.00;100694.38;5007061;28;19922;-41
2023/11/19 07:20:14;;;;;;;;;;;;;;;11.61;100.00;100686.50;5009594;28;19917;-43
2023/11/19 07:22:40;;;;;;;;;;;;;;;11.56;100.00;100695.16;5014137;28;19932;-41
2023/11/19 07:25:05;;;;;;;;;;;;;;;11.55;100.00;100696.19;5000914;28;20397;-41
2023/11/19 07:27:30;;;;;;;;;;;;;;;11.56;100.00;100700.56;5013229;28;19924;-40
2023/11/19 07:29:56;;;;;;;;;;;;;;;11.54;100.00;100702.59;5013886;28;20290;-41
2023/11/19 07:32:21;;;;;;;;;;;;;;;11.59;100.00;100716.34;5016756;28;20244;-41
2023/11/19 07:34:46;;;;;;;;;;;;;;;11.62;100.00;100705.19;5012695;28;20382;-41
2023/11/19 07:37:12;;;;;;;;;;;;;;;11.69;100.00;100701.69;5012536;28;20299;-40
2023/11/19 07:39:40;;;;;;;;;;;;;;;11.74;100.00;100704.66;5012272;28;20295;-41
2023/11/19 07:42:06;;;;;;;;;;;;;;;11.73;100.00;100703.00;5009879;28;19949;-40
2023/11/19 07:44:32;;;;;;;;;;;;;;;11.76;100.00;100708.00;5012731;28;19963;-41
2023/11/19 07:46:57;;;;;;;;;;;;;;;11.78;100.00;100696.00;5012644;28;19952;-40
2023/11/19 07:49:22;;;;;;;;;;;;;;;11.81;100.00;100697.47;5011526;28;19949;-40
2023/11/19 07:51:47;;;;;;;;;;;;;;;11.86;100.00;100695.88;5008593;28;20008;-42
2023/11/19 07:54:13;;;;;;;;;;;;;;;11.89;100.00;100689.28;5016376;28;19918;-41
2023/11/19 07:56:39;;;;;;;;;;;;;;;11.91;100.00;100698.00;5012221;28;19920;-41
2023/11/19 07:59:04;;;;;;;;;;;;;;;11.95;100.00;100698.44;5012456;28;19917;-40
2023/11/19 08:01:29;;;;;;;;;;;;;;;12.03;100.00;100691.06;5012617;28;20287;-41
2023/11/19 08:03:54;;;;;;;;;;;;;;;12.12;100.00;100693.63;4995705;28;19978;-40
2023/11/19 08:06:20;;;;;;;;;;;;;;;12.22;100.00;100694.13;5012584;28;20012;-41
2023/11/19 08:08:45;;;;;;;;;;;;;;;12.28;100.00;100699.53;4994534;28;19917;-41
2023/11/19 08:11:10;;;;;;;;;;;;;;;12.36;100.00;100692.34;5011331;28;19921;-41
2023/11/19 08:13:35;;;;;;;;;;;;;;;12.39;100.00;100690.06;5012213;28;19913;-41
2023/11/19 08:16:00;;;;;;;;;;;;;;;12.46;100.00;100701.75;5013249;28;19924;-40
2023/11/19 08:18:26;;;;;;;;;;;;;;;12.55;100.00;100704.28;5012025;28;19916;-40
2023/11/19 08:20:53;;;;;;;;;;;;;;;12.71;100.00;100699.38;5012153;28;20399;-41
2023/11/19 08:23:18;;;;;;;;;;;;;;;12.64;100.00;100708.50;5011263;28;19918;-40
2023/11/19 08:25:44;;;;;;;;;;;;;;;12.64;100.00;100703.13;5012144;28;20412;-40
2023/11/19 08:28:09;;;;;;;;;;;;;;;12.65;100.00;100702.06;5012234;28;20005;-40
2023/11/19 08:30:35;;;;;;;;;;;;;;;12.58;100.00;100696.63;5011965;28;19936;-40
2023/11/19 08:33:02;;;;;;;;;;;;;;;12.63;100.00;100707.66;5013093;28;19924;-41
2023/11/19 08:35:27;;;;;;;;;;;;;;;12.83;100.00;100696.16;5015772;28;19921;-41
2023/11/19 08:37:53;;;;;;;;;;;;;;;13.13;100.00;100700.22;5016599;28;19989;-41
2023/11/19 08:40:19;;;;;;;;;;;;;;;13.06;100.00;100709.31;5018644;28;19913;-41
2023/11/19 08:42:45;;;;;;;;;;;;;;;12.98;100.00;100694.16;5011969;28;19928;-40
2023/11/19 08:45:11;;;;;;;;;;;;;;;12.86;100.00;100693.88;5015306;28;20371;-41
2023/11/19 08:47:36;;;;;;;;;;;;;;;12.76;100.00;100689.88;5012167;28;20364;-40
2023/11/19 08:50:03;;;;;;;;;;;;;;;12.78;100.00;100683.25;5011739;28;19921;-40
2023/11/19 08:52:30;;;;;;;;;;;;;;;12.90;100.00;100688.88;5013123;28;19925;-40
2023/11/19 08:54:55;;;;;;;;;;;;;;;12.96;100.00;100680.81;5014540;28;19940;-40
2023/11/19 08:57:21;;;;;;;;;;;;;;;13.02;100.00;100684.59;5012370;28;19917;-41
2023/11/19 08:59:46;;;;;;;;;;;;;;;13.03;100.00;100686.25;4997757;28;19917;-41
2023/11/19 09:02:11;;;;;;;;;;;;;;;13.08;100.00;100691.88;5015433;28;19944;-41
2023/11/19 09:04:36;;;;;;;;;;;;;;;13.15;100.00;100697.31;5006985;28;19914;-40
2023/11/19 09:07:03;;;;;;;;;;;;;;;13.11;100.00;100687.94;4995757;28;19918;-39
2023/11/19 09:09:28;;;;;;;;;;;;;;;12.92;100.00;100686.81;4995641;28;20085;-41
2023/11/19 09:11:54;;;;;;;;;;;;;;;12.84;100.00;100682.44;5001563;28;20073;-40
2023/11/19 09:14:24;;;;;;;;;;;;;;;12.78;100.00;100693.22;5016662;28;19924;-40
2023/11/19 09:16:49;;;;;;;;;;;;;;;12.82;100.00;100695.31;5016503;28;19921;-40
2023/11/19 09:19:14;;;;;;;;;;;;;;;12.77;100.00;100684.28;5016126;28;19918;-40
2023/11/19 09:21:39;;;;;;;;;;;;;;;12.78;100.00;100691.34;5031265;28;19917;-40
2023/11/19 09:24:05;;;;;;;;;;;;;;;12.81;100.00;100692.81;5026504;28;19921;-41
2023/11/19 09:26:30;;;;;;;;;;;;;;;12.93;100.00;100691.22;5016143;28;19920;-41
2023/11/19 09:28:56;;;;;;;;;;;;;;;13.22;100.00;100689.22;5036684;28;19917;-40
2023/11/19 09:31:21;;;;;;;;;;;;;;;13.54;100.00;100676.88;5036658;28;20367;-41
2023/11/19 09:33:46;;;;;;;;;;;;;;;13.78;100.00;100684.38;5037182;28;19917;-41
2023/11/19 09:36:13;;;;;;;;;;;;;;;14.07;100.00;100682.31;5034938;28;19917;-41
2023/11/19 09:38:38;;;;;;;;;;;;;;;13.94;100.00;100674.19;5022818;28;19929;-41
2023/11/19 09:41:08;;;;;;;;;;;;;;;13.90;100.00;100681.06;5028185;28;19913;-41
2023/11/19 09:43:33;;;;;;;;;;;;;;;13.92;100.00;100674.38;5011410;28;19932;-40
2023/11/19 09:45:58;;;;;;;;;;;;;;;14.03;100.00;100675.63;5015731;28;19917;-41
2023/11/19 09:48:24;;;;;;;;;;;;;;;13.97;100.00;100676.47;5015394;28;20600;-41
2023/11/19 09:50:49;;;;;;;;;;;;;;;13.86;100.00;100685.22;4995287;28;19917;-40
2023/11/19 09:53:15;;;;;;;;;;;;;;;13.76;100.00;100686.44;4998691;28;19928;-39
2023/11/19 09:55:40;;;;;;;;;;;;;;;13.64;100.00;100684.56;5014200;28;19933;-40
2023/11/19 09:58:06;;;;;;;;;;;;;;;13.57;100.00;100698.09;5032649;28;19917;-41
2023/11/19 10:00:32;;;;;;;;;;;;;;;13.42;100.00;100692.03;5008348;28;19920;-40
2023/11/19 10:02:57;;;;;;;;;;;;;;;13.55;100.00;100681.22;5013331;28;20001;-41
2023/11/19 10:05:22;;;;;;;;;;;;;;;13.65;100.00;100686.25;5012766;28;20016;-40
2023/11/19 10:07:47;;;;;;;;;;;;;;;13.73;100.00;100686.88;4995122;28;19957;-40
2023/11/19 10:10:18;;;;;;;;;;;;;;;13.96;100.00;100685.66;5013929;28;19972;-41
2023/11/19 10:12:43;;;;;;;;;;;;;;;14.31;100.00;100680.00;5006743;28;20347;-40
2023/11/19 10:15:08;;;;;;;;;;;;;;;14.37;100.00;100677.25;4986044;28;19932;-41
2023/11/19 10:17:34;;;;;;;;;;;;;;;14.41;100.00;100672.28;4982980;28;19914;-39
2023/11/19 10:19:59;;;;;;;;;;;;;;;14.41;100.00;100670.41;5003308;28;19921;-40
2023/11/19 10:22:26;;;;;;;;;;;;;;;14.34;100.00;100666.88;5002783;28;20013;-41
2023/11/19 10:24:51;;;;;;;;;;;;;;;14.45;100.00;100668.09;5009570;28;20290;-40
2023/11/19 10:27:16;;;;;;;;;;;;;;;14.36;100.00;100669.38;4999757;28;20439;-40
2023/11/19 10:29:46;;;;;;;;;;;;;;;14.48;100.00;100662.25;5017524;28;19917;-39
2023/11/19 10:32:11;;;;;;;;;;;;;;;14.59;100.00;100664.34;5013526;28;20032;-39
2023/11/19 10:34:39;;;;;;;;;;;;;;;14.56;100.00;100661.22;4991435;28;19913;-40
2023/11/19 10:37:04;;;;;;;;;;;;;;;14.60;100.00;100648.94;5001184;28;19917;-39
2023/11/19 10:39:51;;;;;;;;;;;;;;;14.85;100.00;100662.56;4998572;28;19989;-41
2023/11/19 10:42:16;;;;;;;;;;;;;;;15.02;100.00;100660.22;5003218;28;19918;-40
2023/11/19 10:44:41;;;;;;;;;;;;;;;14.83;100.00;100656.56;4997931;28;19979;-40
2023/11/19 10:47:07;;;;;;;;;;;;;;;14.86;100.00;100661.56;4995133;28;19936;-41
2023/11/19 10:49:35;;;;;;;;;;;;;;;14.38;100.00;100667.28;4977117;28;20012;-40
2023/11/19 10:52:00;;;;;;;;;;;;;;;14.38;100.00;100661.88;5012469;28;20226;-41
2023/11/19 10:54:25;;;;;;;;;;;;;;;14.44;100.00;100661.03;5016986;28;19924;-41
2023/11/19 10:56:54;;;;;;;;;;;;;;;14.46;100.00;100653.53;4994196;28;19953;-41
2023/11/19 10:59:19;;;;;;;;;;;;;;;14.17;100.00;100658.38;5008252;28;19984;-41
2023/11/19 11:01:45;;;;;;;;;;;;;;;14.12;100.00;100658.16;4995259;28;20448;-40
2023/11/19 11:04:19;;;;;;;;;;;;;;;14.05;100.00;100663.56;5003408;28;20309;-40
2023/11/19 11:06:44;;;;;;;;;;;;;;;14.11;100.00;100659.19;5008242;28;20397;-40
2023/11/19 11:09:12;;;;;;;;;;;;;;;13.97;100.00;100661.06;4992685;28;19925;-41
2023/11/19 11:11:38;;;;;;;;;;;;;;;13.95;100.00;100654.22;4988387;28;20348;-40
2023/11/19 11:14:03;;;;;;;;;;;;;;;14.03;100.00;100654.00;4994684;28;19968;-41
2023/11/19 11:16:28;;;;;;;;;;;;;;;14.06;100.00;100659.00;5015157;28;19952;-41
2023/11/19 11:18:54;;;;;;;;;;;;;;;14.08;100.00;100656.91;5011307;28;19924;-41
2023/11/19 11:21:23;;;;;;;;;;;;;;;14.12;100.00;100655.47;5000291;28;20236;-41
2023/11/19 11:23:58;;;;;;;;;;;;;;;14.16;100.00;100640.44;4983196;28;19921;-40
2023/11/19 11:26:29;;;;;;;;;;;;;;;14.28;100.00;100651.47;5003196;28;19923;-41
2023/11/19 11:28:57;;;;;;;;;;;;;;;14.20;100.00;100644.41;5007928;28;19917;-41
2023/11/19 11:31:35;;;;;;;;;;;;;;;14.31;100.00;100645.63;4993815;28;20303;-41
2023/11/19 11:34:19;;;;;;;;;;;;;;;14.62;100.00;100647.66;5005394;28;20336;-40
2023/11/19 11:36:57;;;;;;;;;;;;;;;15.23;100.00;100643.66;5023891;28;19971;-41
2023/11/19 11:39:23;;;;;;;;;;;;;;;15.27;100.00;100638.59;5029851;28;20260;-40
2023/11/19 11:42:04;;;;;;;;;;;;;;;14.98;100.00;100635.44;5002789;28;19928;-40
2023/11/19 11:44:48;;;;;;;;;;;;;;;14.71;100.00;100640.97;4993972;28;19927;-41
2023/11/19 11:47:14;;;;;;;;;;;;;;;14.61;100.00;100631.63;5025283;28;20019;-41
2023/11/19 11:49:39;;;;;;;;;;;;;;;14.57;100.00;100633.94;5027090;28;20565;-40
2023/11/19 11:52:04;;;;;;;;;;;;;;;14.82;100.00;100617.78;5010376;28;20315;-42
2023/11/19 11:54:30;;;;;;;;;;;;;;;14.96;100.00;100629.41;5011725;28;20399;-41
2023/11/19 11:57:11;;;;;;;;;;;;;;;14.87;100.00;100633.41;5011410;28;19920;-40
2023/11/19 11:59:38;;;;;;;;;;;;;;;14.80;100.00;100624.50;4993659;28;19991;-41
2023/11/19 12:02:03;;;;;;;;;;;;;;;14.77;100.00;100633.03;5010572;28;20276;-41
2023/11/19 12:04:28;;;;;;;;;;;;;;;14.62;100.00;100642.25;4995474;28;19917;-39
2023/11/19 12:07:13;;;;;;;;;;;;;;;14.53;100.00;100635.41;5013513;28;19944;-40
2023/11/19 12:09:41;;;;;;;;;;;;;;;14.15;100.00;100632.56;4994523;28;19957;-40
2023/11/19 12:12:07;;;;;;;;;;;;;;;14.03;100.00;100654.00;5012510;28;19925;-40
2023/11/19 12:14:52;;;;;;;;;;;;;;;13.81;100.00;100634.44;5011776;28;19917;-40
2023/11/19 12:17:29;;;;;;;;;;;;;;;13.77;100.00;100628.63;5009645;28;19944;-40
2023/11/19 12:19:55;;;;;;;;;;;;;;;13.71;100.00;100634.84;5010609;28;19939;-40
2023/11/19 12:22:20;;;;;;;;;;;;;;;13.70;100.00;100635.91;5011327;28;20363;-42